Aquitania — MADG — position and weather

sailwx.info

Track history (hours):
 
Tides and Currents Weather Stations Pressure Air Temp Water Temp Dewpoint Dewpoint Depression Visibility Wind Speed Wind Dir Waves Ship Positions

Aquitania

Last reported at 2018-Feb-10 00:42 UTC. Time now 2018-Feb-18 03:26 UTC.
Position N 37°43' E 024°32'.
Warning: this ship's position is 8 days out of date.

Length 190 m; draft 10.2 m.

Type: Cargo ship. MMSI: 235050012.

Date/timePositionNaut miles runAvg speedWind from/ knotsBaromVisibWave heightAir tempDewpointWater temp
2018-Feb-10 00:42N 37°43' E 024°32'313.7
2018-Feb-10 00:29N 37°40' E 024°31'  
2018-Feb-06 14:26N 37°03' E 002°17'613.9
2018-Feb-06 14:00N 37°02' E 002°10'714.1
2018-Feb-06 13:30N 37°01' E 002°01'714.3
2018-Feb-06 13:00N 36°59' E 001°52'714.1
2018-Feb-06 12:30N 36°58' E 001°43'56312.2
2018-Feb-04 14:23N 38°20' W 009°60'513.9
2018-Feb-04 14:00N 38°25' W 010°01'713.8
2018-Feb-04 13:30N 38°32' W 010°03'713.6
2018-Feb-04 13:00N 38°39' W 010°05'713.8
2018-Feb-04 12:30N 38°45' W 010°06'713.5
2018-Feb-04 12:00N 38°52' W 010°06'713.3
2018-Feb-04 11:30N 38°59' W 010°06'  
2018-Feb-02 03:47N 49°39' W 003°52'813.3
2018-Feb-02 03:10N 49°43' W 003°40'214.2
2018-Feb-02 03:00N 49°44' W 003°37'714.5
2018-Feb-02 02:31N 49°47' W 003°28'815.3
2018-Feb-02 02:01N 49°51' W 003°17'815.6
2018-Feb-02 01:30N 49°55' W 003°07'815.5
2018-Feb-02 01:01N 49°59' W 002°57'714.3
2018-Feb-02 00:31N 50°01' W 002°46'713.8
2018-Feb-02 00:01N 50°02' W 002°35'712.9
2018-Feb-01 23:27N 50°03' W 002°24'1710.6
2018-Feb-01 21:54N 50°09' W 001°60'3 8.9
2018-Feb-01 21:30N 50°10' W 001°55'17 8.5
2018-Feb-01 19:30N 50°14' W 001°29'5 9.7
2018-Feb-01 19:00N 50°15' W 001°22'1411.8
2018-Feb-01 17:52N 50°18' W 001°01'714.4
2018-Feb-01 17:25N 50°20' W 000°51'614.4
2018-Feb-01 16:59N 50°22' W 000°42'714.8
2018-Feb-01 16:30N 50°23' W 000°31'714.7
2018-Feb-01 16:00N 50°25' W 000°20'714.4
2018-Feb-01 15:30N 50°27' W 000°09'714.4
2018-Feb-01 15:01N 50°29' E 000°02'2013.6
2018-Feb-01 13:31N 50°35' E 000°32'612.1
2018-Feb-01 13:01N 50°38' E 000°40'612.5
2018-Feb-01 12:30N 50°41' E 000°49'612.0
2018-Feb-01 12:01N 50°45' E 000°56'1211.8
2018-Feb-01 10:59N 50°53' E 001°10'611.9
2018-Feb-01 10:30N 50°58' E 001°16'612.4
2018-Feb-01 10:01N 51°02' E 001°23'714.5
2018-Feb-01 09:30N 51°06' E 001°33'815.5
2018-Feb-01 09:00N 51°11' E 001°42'815.8
2018-Feb-01 08:30N 51°17' E 001°49'1514.7
2018-Feb-01 07:30N 51°32' E 001°50'714.1
2018-Feb-01 07:00N 51°39' E 001°45'713.8
2018-Feb-01 06:30N 51°45' E 001°43'510.1
2018-Feb-01 06:00N 51°50' E 001°39'4 8.9
2018-Feb-01 05:31N 51°47' E 001°33'611.8
2018-Feb-01 05:00N 51°42' E 001°28'713.4
2018-Feb-01 04:30N 51°37' E 001°20'713.7
2018-Feb-01 04:00N 51°34' E 001°11'1313.3
2018-Feb-01 03:00N 51°29' E 000°51'612.8
2018-Feb-01 02:30N 51°30' E 000°40'510.4
2018-Feb-01 02:01N 51°30' E 000°32'4 7.7
2018-Feb-01 01:30N 51°28' E 000°27'3 6.7
2018-Feb-01 01:00N 51°27' E 000°22'1 1.8
2018-Feb-01 00:30N 51°27' E 000°20'0 0.2
2018-Feb-01 00:00N 51°27' E 000°21'0 0.4
2018-Jan-31 23:00N 51°28' E 000°21'0 0.0
2018-Jan-31 22:30N 51°28' E 000°21'0 0.0
2018-Jan-31 21:00N 51°28' E 000°21'0 0.0
2018-Jan-31 20:31N 51°28' E 000°21'0 0.0
2018-Jan-31 20:00N 51°28' E 000°21'0 0.0
2018-Jan-31 19:31N 51°28' E 000°21'0 0.0
2018-Jan-31 19:00N 51°28' E 000°21'0 0.0
2018-Jan-31 18:31N 51°28' E 000°21'0 0.0
2018-Jan-31 18:00N 51°28' E 000°21'0 0.1
2018-Jan-31 17:30N 51°28' E 000°21'0 0.0
2018-Jan-31 17:00N 51°28' E 000°21'0 0.0
2018-Jan-31 16:30N 51°28' E 000°21'0 0.0
2018-Jan-31 16:00N 51°28' E 000°21'0 0.0
2018-Jan-31 15:31N 51°28' E 000°21'0 0.0
2018-Jan-31 15:01N 51°28' E 000°21'0 0.0
2018-Jan-31 14:30N 51°28' E 000°21'0 0.0
2018-Jan-31 13:01N 51°28' E 000°21'0 0.0
2018-Jan-31 12:30N 51°28' E 000°21'0 0.0
2018-Jan-31 12:00N 51°28' E 000°21'0 0.0
2018-Jan-31 11:31N 51°28' E 000°21'0 0.0
2018-Jan-31 11:00N 51°28' E 000°21'0 0.0
2018-Jan-31 10:31N 51°28' E 000°21'0 0.0
2018-Jan-31 10:00N 51°28' E 000°21'0 0.0
2018-Jan-31 09:31N 51°28' E 000°21'0 0.0
2018-Jan-31 09:01N 51°28' E 000°21'0 0.0
2018-Jan-31 08:31N 51°28' E 000°21'0 0.0
2018-Jan-31 08:00N 51°28' E 000°21'0 0.0
2018-Jan-31 07:30N 51°28' E 000°21'0 0.0
2018-Jan-31 07:01N 51°28' E 000°21'0 0.0
2018-Jan-31 06:30N 51°28' E 000°21'0 0.0
2018-Jan-31 06:01N 51°28' E 000°21'0 0.0
2018-Jan-31 05:31N 51°28' E 000°21'0 0.1
2018-Jan-31 05:01N 51°28' E 000°21'0 0.0
2018-Jan-31 04:31N 51°28' E 000°21'0 0.0
2018-Jan-31 04:00N 51°28' E 000°21'0 0.0
2018-Jan-31 03:31N 51°28' E 000°21'0 0.0
2018-Jan-31 03:00N 51°28' E 000°21'0 0.0
2018-Jan-31 02:31N 51°28' E 000°21'0 0.0
2018-Jan-31 02:00N 51°28' E 000°21'0 0.0
2018-Jan-31 01:31N 51°28' E 000°21'0 0.0
2018-Jan-31 01:01N 51°28' E 000°21'  
Track history (hours):
 
Tides and Currents Weather Stations Pressure Air Temp Water Temp Dewpoint Dewpoint Depression Visibility Wind Speed Wind Dir Waves Ship Positions

Aquitania

Last reported at 2018-Feb-10 00:42 UTC. Time now 2018-Feb-18 03:26 UTC.
Position N 37°43' E 024°32'.
Warning: this ship's position is 8 days out of date.

Length 190 m; draft 10.2 m.

Type: Cargo ship. MMSI: 235050012.

Date/timePositionNaut miles runAvg speedWind from/ knotsBaromVisibWave heightAir tempDewpointWater temp
2018-Feb-10 00:42N 37°43' E 024°32'313.7
2018-Feb-10 00:29N 37°40' E 024°31'  
2018-Feb-06 14:26N 37°03' E 002°17'613.9
2018-Feb-06 14:00N 37°02' E 002°10'714.1
2018-Feb-06 13:30N 37°01' E 002°01'714.3
2018-Feb-06 13:00N 36°59' E 001°52'714.1
2018-Feb-06 12:30N 36°58' E 001°43'56312.2
2018-Feb-04 14:23N 38°20' W 009°60'513.9
2018-Feb-04 14:00N 38°25' W 010°01'713.8
2018-Feb-04 13:30N 38°32' W 010°03'713.6
2018-Feb-04 13:00N 38°39' W 010°05'713.8
2018-Feb-04 12:30N 38°45' W 010°06'713.5
2018-Feb-04 12:00N 38°52' W 010°06'713.3
2018-Feb-04 11:30N 38°59' W 010°06'  
2018-Feb-02 03:47N 49°39' W 003°52'813.3
2018-Feb-02 03:10N 49°43' W 003°40'214.2
2018-Feb-02 03:00N 49°44' W 003°37'714.5
2018-Feb-02 02:31N 49°47' W 003°28'815.3
2018-Feb-02 02:01N 49°51' W 003°17'815.6
2018-Feb-02 01:30N 49°55' W 003°07'815.5
2018-Feb-02 01:01N 49°59' W 002°57'714.3
2018-Feb-02 00:31N 50°01' W 002°46'713.8
2018-Feb-02 00:01N 50°02' W 002°35'712.9
2018-Feb-01 23:27N 50°03' W 002°24'1710.6
2018-Feb-01 21:54N 50°09' W 001°60'3 8.9
2018-Feb-01 21:30N 50°10' W 001°55'17 8.5
2018-Feb-01 19:30N 50°14' W 001°29'5 9.7
2018-Feb-01 19:00N 50°15' W 001°22'1411.8
2018-Feb-01 17:52N 50°18' W 001°01'714.4
2018-Feb-01 17:25N 50°20' W 000°51'614.4
2018-Feb-01 16:59N 50°22' W 000°42'714.8
2018-Feb-01 16:30N 50°23' W 000°31'714.7
2018-Feb-01 16:00N 50°25' W 000°20'714.4
2018-Feb-01 15:30N 50°27' W 000°09'714.4
2018-Feb-01 15:01N 50°29' E 000°02'2013.6
2018-Feb-01 13:31N 50°35' E 000°32'612.1
2018-Feb-01 13:01N 50°38' E 000°40'612.5
2018-Feb-01 12:30N 50°41' E 000°49'612.0
2018-Feb-01 12:01N 50°45' E 000°56'1211.8
2018-Feb-01 10:59N 50°53' E 001°10'611.9
2018-Feb-01 10:30N 50°58' E 001°16'612.4
2018-Feb-01 10:01N 51°02' E 001°23'714.5
2018-Feb-01 09:30N 51°06' E 001°33'815.5
2018-Feb-01 09:00N 51°11' E 001°42'815.8
2018-Feb-01 08:30N 51°17' E 001°49'1514.7
2018-Feb-01 07:30N 51°32' E 001°50'714.1
2018-Feb-01 07:00N 51°39' E 001°45'713.8
2018-Feb-01 06:30N 51°45' E 001°43'510.1
2018-Feb-01 06:00N 51°50' E 001°39'4 8.9
2018-Feb-01 05:31N 51°47' E 001°33'611.8
2018-Feb-01 05:00N 51°42' E 001°28'713.4
2018-Feb-01 04:30N 51°37' E 001°20'713.7
2018-Feb-01 04:00N 51°34' E 001°11'1313.3
2018-Feb-01 03:00N 51°29' E 000°51'612.8
2018-Feb-01 02:30N 51°30' E 000°40'510.4
2018-Feb-01 02:01N 51°30' E 000°32'4 7.7
2018-Feb-01 01:30N 51°28' E 000°27'3 6.7
2018-Feb-01 01:00N 51°27' E 000°22'1 1.8
2018-Feb-01 00:30N 51°27' E 000°20'0 0.2
2018-Feb-01 00:00N 51°27' E 000°21'0 0.4
2018-Jan-31 23:00N 51°28' E 000°21'0 0.0
2018-Jan-31 22:30N 51°28' E 000°21'0 0.0
2018-Jan-31 21:00N 51°28' E 000°21'0 0.0
2018-Jan-31 20:31N 51°28' E 000°21'0 0.0
2018-Jan-31 20:00N 51°28' E 000°21'0 0.0
2018-Jan-31 19:31N 51°28' E 000°21'0 0.0
2018-Jan-31 19:00N 51°28' E 000°21'0 0.0
2018-Jan-31 18:31N 51°28' E 000°21'0 0.0
2018-Jan-31 18:00N 51°28' E 000°21'0 0.1
2018-Jan-31 17:30N 51°28' E 000°21'0 0.0
2018-Jan-31 17:00N 51°28' E 000°21'0 0.0
2018-Jan-31 16:30N 51°28' E 000°21'0 0.0
2018-Jan-31 16:00N 51°28' E 000°21'0 0.0
2018-Jan-31 15:31N 51°28' E 000°21'0 0.0
2018-Jan-31 15:01N 51°28' E 000°21'0 0.0
2018-Jan-31 14:30N 51°28' E 000°21'0 0.0
2018-Jan-31 13:01N 51°28' E 000°21'0 0.0
2018-Jan-31 12:30N 51°28' E 000°21'0 0.0
2018-Jan-31 12:00N 51°28' E 000°21'0 0.0
2018-Jan-31 11:31N 51°28' E 000°21'0 0.0
2018-Jan-31 11:00N 51°28' E 000°21'0 0.0
2018-Jan-31 10:31N 51°28' E 000°21'0 0.0
2018-Jan-31 10:00N 51°28' E 000°21'0 0.0
2018-Jan-31 09:31N 51°28' E 000°21'0 0.0
2018-Jan-31 09:01N 51°28' E 000°21'0 0.0
2018-Jan-31 08:31N 51°28' E 000°21'0 0.0
2018-Jan-31 08:00N 51°28' E 000°21'0 0.0
2018-Jan-31 07:30N 51°28' E 000°21'0 0.0
2018-Jan-31 07:01N 51°28' E 000°21'0 0.0
2018-Jan-31 06:30N 51°28' E 000°21'0 0.0
2018-Jan-31 06:01N 51°28' E 000°21'0 0.0
2018-Jan-31 05:31N 51°28' E 000°21'0 0.1
2018-Jan-31 05:01N 51°28' E 000°21'0 0.0
2018-Jan-31 04:31N 51°28' E 000°21'0 0.0
2018-Jan-31 04:00N 51°28' E 000°21'0 0.0
2018-Jan-31 03:31N 51°28' E 000°21'0 0.0
2018-Jan-31 03:00N 51°28' E 000°21'0 0.0
2018-Jan-31 02:31N 51°28' E 000°21'0 0.0
2018-Jan-31 02:00N 51°28' E 000°21'0 0.0
2018-Jan-31 01:31N 51°28' E 000°21'0 0.0
2018-Jan-31 01:01N 51°28' E 000°21'  

Dump ship's entire track history